createdAt,value
2016-12-01T00:00:26.648Z,15.92
2016-12-01T00:00:54.749Z,15.89
2016-12-01T00:01:22.602Z,15.88
2016-12-01T00:01:50.749Z,15.88
2016-12-01T00:02:18.820Z,15.86
2016-12-01T00:02:47.062Z,15.89
2016-12-01T00:03:14.945Z,15.77
2016-12-01T00:03:43.094Z,15.88
2016-12-01T00:04:11.354Z,15.84
2016-12-01T00:04:39.619Z,15.78
2016-12-01T00:05:07.773Z,15.81
2016-12-01T00:05:35.883Z,15.78
2016-12-01T00:06:04.276Z,15.78
2016-12-01T00:06:32.517Z,15.77
2016-12-01T00:07:00.687Z,15.86
2016-12-01T00:07:28.945Z,15.84
2016-12-01T00:07:57.100Z,15.75
2016-12-01T00:08:25.138Z,15.77
2016-12-01T00:08:53.406Z,15.88
2016-12-01T00:09:21.459Z,15.84
2016-12-01T00:09:49.582Z,15.8
2016-12-01T00:10:17.675Z,15.67
2016-12-01T00:10:45.823Z,15.78
2016-12-01T00:11:14.009Z,15.8
2016-12-01T00:11:42.249Z,15.74
2016-12-01T00:12:10.318Z,15.71
2016-12-01T00:12:38.515Z,15.78
2016-12-01T00:13:06.750Z,15.77
2016-12-01T00:13:34.850Z,15.68
2016-12-01T00:14:02.937Z,15.68
2016-12-01T00:14:31.134Z,15.7
2016-12-01T00:14:59.354Z,15.73
2016-12-01T00:15:27.482Z,15.71
2016-12-01T00:15:55.727Z,15.67
2016-12-01T00:16:23.901Z,15.68
2016-12-01T00:17:35.001Z,15.58
2016-12-01T00:18:03.164Z,15.65
2016-12-01T00:18:31.197Z,15.55
2016-12-01T00:18:59.355Z,15.56
2016-12-01T00:19:27.310Z,15.52
2016-12-01T00:19:55.477Z,15.51
2016-12-01T00:20:23.509Z,15.52
2016-12-01T00:20:51.537Z,15.56
2016-12-01T00:21:19.730Z,15.58
2016-12-01T00:21:47.689Z,15.58
2016-12-01T00:22:15.723Z,15.55
2016-12-01T00:22:43.950Z,15.59
2016-12-01T00:23:11.960Z,15.51
2016-12-01T00:23:39.987Z,15.49
2016-12-01T00:24:07.953Z,15.49
2016-12-01T00:24:35.907Z,15.55
2016-12-01T00:25:03.839Z,15.51
2016-12-01T00:25:31.889Z,15.47
2016-12-01T00:25:59.968Z,15.47
2016-12-01T00:26:28.034Z,15.52
2016-12-01T00:26:56.000Z,15.47
2016-12-01T00:27:24.062Z,15.52
2016-12-01T00:27:52.018Z,15.45
2016-12-01T00:28:20.034Z,15.45
2016-12-01T00:28:48.199Z,15.52
2016-12-01T00:29:16.233Z,15.38
2016-12-01T00:29:44.222Z,15.35
2016-12-01T00:30:12.297Z,15.4
2016-12-01T00:30:40.439Z,15.38
2016-12-01T00:31:08.541Z,15.45
2016-12-01T00:31:36.500Z,15.47
2016-12-01T00:32:04.697Z,15.38
2016-12-01T00:32:32.661Z,15.38
2016-12-01T00:33:00.683Z,15.38
2016-12-01T00:33:29.138Z,15.47
2016-12-01T00:33:57.187Z,15.34
2016-12-01T00:34:25.277Z,15.34
2016-12-01T00:34:53.276Z,15.41
2016-12-01T00:35:21.422Z,15.4
2016-12-01T00:35:49.634Z,15.4
2016-12-01T00:36:17.885Z,15.38
2016-12-01T00:36:45.930Z,15.38
2016-12-01T00:37:14.052Z,15.38
2016-12-01T00:37:42.233Z,15.43
2016-12-01T00:38:10.169Z,15.38
2016-12-01T00:38:38.407Z,15.37
2016-12-01T00:39:06.386Z,15.4
2016-12-01T00:39:34.521Z,15.37
2016-12-01T00:40:02.562Z,15.4
2016-12-01T00:40:30.460Z,15.34
2016-12-01T00:40:58.601Z,15.38
2016-12-01T00:41:26.784Z,15.38
2016-12-01T00:41:54.924Z,15.4
2016-12-01T00:42:23.062Z,15.38
2016-12-01T00:42:51.139Z,15.38
2016-12-01T00:43:18.988Z,15.37
2016-12-01T00:43:47.241Z,15.41
2016-12-01T00:44:15.396Z,15.41
2016-12-01T00:44:43.478Z,15.38
2016-12-01T00:45:11.498Z,15.41
2016-12-01T00:45:39.606Z,15.41
2016-12-01T00:46:07.729Z,15.41
2016-12-01T00:46:35.874Z,15.47
2016-12-01T00:47:03.966Z,15.41
2016-12-01T00:47:32.134Z,15.44
2016-12-01T00:48:00.207Z,15.4
2016-12-01T00:48:28.295Z,15.37
2016-12-01T00:48:56.255Z,15.37
2016-12-01T00:49:24.231Z,15.43
2016-12-01T00:49:52.424Z,15.41
2016-12-01T00:50:20.585Z,15.38
2016-12-01T00:50:48.767Z,15.38
2016-12-01T00:51:16.856Z,15.45
2016-12-01T00:51:45.051Z,15.33
2016-12-01T00:52:13.229Z,15.43
2016-12-01T00:52:41.348Z,15.35
2016-12-01T00:53:09.653Z,15.44
2016-12-01T00:53:37.739Z,15.38
2016-12-01T00:54:05.719Z,15.35
2016-12-01T00:54:33.722Z,15.37
2016-12-01T00:55:01.934Z,15.37
2016-12-01T00:55:30.100Z,15.4
2016-12-01T00:55:58.252Z,15.37
2016-12-01T00:56:26.444Z,15.47
2016-12-01T00:56:54.506Z,15.38
2016-12-01T00:57:22.556Z,15.4
2016-12-01T00:57:50.725Z,15.51
2016-12-01T00:58:18.632Z,15.52
2016-12-01T00:58:46.676Z,15.47
2016-12-01T00:59:14.834Z,15.45
2016-12-01T01:00:03.340Z,15.44
2016-12-01T01:00:31.398Z,15.49
2016-12-01T01:00:59.470Z,15.38
2016-12-01T01:01:27.448Z,15.51
2016-12-01T01:01:55.550Z,15.45
2016-12-01T01:02:23.639Z,15.4
2016-12-01T01:02:51.633Z,15.49
2016-12-01T01:03:19.740Z,15.47
2016-12-01T01:03:48.045Z,15.38
2016-12-01T01:04:16.250Z,15.34
2016-12-01T01:04:44.219Z,15.35
2016-12-01T01:05:12.296Z,15.38
2016-12-01T01:05:40.284Z,15.41
2016-12-01T01:06:08.429Z,15.43
2016-12-01T01:06:36.501Z,15.41
2016-12-01T01:07:04.537Z,15.37
2016-12-01T01:07:58.793Z,15.4
2016-12-01T01:08:26.808Z,15.35
2016-12-01T01:08:55.085Z,15.47
2016-12-01T01:09:23.266Z,15.34
2016-12-01T01:09:51.437Z,15.31
2016-12-01T01:10:19.537Z,15.31
2016-12-01T01:10:47.742Z,15.34
2016-12-01T01:11:16.001Z,15.35
2016-12-01T01:11:44.375Z,15.37
2016-12-01T01:12:12.298Z,15.34
2016-12-01T01:12:40.360Z,15.33
2016-12-01T01:13:08.484Z,15.27
2016-12-01T01:13:36.570Z,15.38
2016-12-01T01:14:04.689Z,15.34
2016-12-01T01:14:32.801Z,15.45
2016-12-01T01:15:00.793Z,15.37
2016-12-01T01:15:28.907Z,15.34
2016-12-01T01:15:56.988Z,15.27
2016-12-01T01:16:25.028Z,15.37
2016-12-01T01:16:53.220Z,15.41
2016-12-01T01:17:21.316Z,15.47
2016-12-01T01:17:49.405Z,15.41
2016-12-01T01:18:17.640Z,15.38
2016-12-01T01:18:45.826Z,15.38
2016-12-01T01:19:13.971Z,15.4
2016-12-01T01:19:42.039Z,15.4
2016-12-01T01:20:10.348Z,15.44
2016-12-01T01:20:38.561Z,15.4
2016-12-01T01:21:06.811Z,15.44
2016-12-01T01:21:34.978Z,15.34
2016-12-01T01:22:03.161Z,15.41
2016-12-01T01:22:31.225Z,15.4
2016-12-01T01:22:59.402Z,15.4
2016-12-01T01:23:27.555Z,15.45
2016-12-01T01:23:55.626Z,15.43
2016-12-01T01:24:23.752Z,15.41
2016-12-01T01:24:51.775Z,15.38
2016-12-01T01:25:19.787Z,15.35
2016-12-01T01:25:48.033Z,15.38
2016-12-01T01:26:16.307Z,15.35
2016-12-01T01:26:44.701Z,15.41
2016-12-01T01:27:12.889Z,15.41
2016-12-01T01:27:41.048Z,15.37
2016-12-01T01:28:09.214Z,15.41
2016-12-01T01:28:37.277Z,15.34
2016-12-01T01:29:05.230Z,15.41
2016-12-01T01:29:33.398Z,15.44
2016-12-01T01:30:01.513Z,15.38
2016-12-01T01:30:29.693Z,15.4
2016-12-01T01:30:57.861Z,15.45
2016-12-01T01:31:25.830Z,15.43
2016-12-01T01:31:54.074Z,15.44
2016-12-01T01:32:22.396Z,15.35
2016-12-01T01:32:50.661Z,15.43
2016-12-01T01:33:18.536Z,15.37
2016-12-01T01:33:46.795Z,15.33
2016-12-01T01:34:15.141Z,15.31
2016-12-01T01:34:43.283Z,15.31
2016-12-01T01:35:11.549Z,15.31
2016-12-01T01:35:39.842Z,15.27
2016-12-01T01:36:07.895Z,15.3
2016-12-01T01:36:36.160Z,15.25
2016-12-01T01:37:04.319Z,15.27
2016-12-01T01:37:32.428Z,15.23
2016-12-01T01:38:00.561Z,15.26
2016-12-01T01:38:28.656Z,15.37
2016-12-01T01:38:56.551Z,15.25
2016-12-01T01:39:24.790Z,15.26
2016-12-01T01:39:53.019Z,15.23
2016-12-01T01:40:21.168Z,15.26
2016-12-01T01:40:49.399Z,15.3
2016-12-01T01:41:17.657Z,15.27
2016-12-01T01:41:45.825Z,15.3
2016-12-01T01:42:14.062Z,15.3
2016-12-01T01:42:42.212Z,15.33
2016-12-01T01:43:10.473Z,15.26
2016-12-01T01:43:38.640Z,15.27
2016-12-01T01:44:06.808Z,15.26
2016-12-01T01:44:35.000Z,15.22
2016-12-01T01:45:03.063Z,15.34
2016-12-01T01:45:31.321Z,15.31
2016-12-01T01:45:59.580Z,15.38
2016-12-01T01:46:27.664Z,15.35
2016-12-01T01:46:56.037Z,15.35
2016-12-01T01:47:24.151Z,15.37
2016-12-01T01:47:52.310Z,15.33
2016-12-01T01:48:20.539Z,15.27
2016-12-01T01:48:48.755Z,15.34
2016-12-01T01:49:16.838Z,15.27
2016-12-01T01:49:44.959Z,15.31
2016-12-01T01:50:12.939Z,15.37
2016-12-01T01:50:41.226Z,15.38
2016-12-01T01:51:09.473Z,15.33
2016-12-01T01:51:37.645Z,15.45
2016-12-01T01:52:05.892Z,15.37
2016-12-01T01:52:34.086Z,15.31
2016-12-01T01:53:02.182Z,15.31
2016-12-01T01:53:30.340Z,15.35
2016-12-01T01:53:58.662Z,15.38
2016-12-01T01:54:26.794Z,15.4
2016-12-01T01:54:55.064Z,15.43
2016-12-01T01:55:23.206Z,15.34
2016-12-01T01:55:51.245Z,15.3
2016-12-01T01:56:19.081Z,15.34
2016-12-01T01:56:47.230Z,15.4
2016-12-01T01:57:15.329Z,15.43
2016-12-01T01:57:43.335Z,15.43
2016-12-01T01:58:11.227Z,15.27
2016-12-01T01:58:39.308Z,15.27
2016-12-01T01:59:07.254Z,15.37
2016-12-01T01:59:35.419Z,15.38
2016-12-01T02:00:03.586Z,15.31
2016-12-01T02:00:31.736Z,15.4
2016-12-01T02:00:59.877Z,15.37
2016-12-01T02:01:27.977Z,15.4
2016-12-01T02:01:56.229Z,15.3
2016-12-01T02:02:24.444Z,15.38
2016-12-01T02:02:52.610Z,15.35
2016-12-01T02:03:20.879Z,15.4
2016-12-01T02:03:49.119Z,15.33
2016-12-01T02:04:17.168Z,15.34
2016-12-01T02:04:45.334Z,15.35
2016-12-01T02:05:13.536Z,15.25
2016-12-01T02:05:41.746Z,15.27
2016-12-01T02:06:09.821Z,15.26
2016-12-01T02:06:37.929Z,15.25
2016-12-01T02:07:06.105Z,15.34
2016-12-01T02:07:34.093Z,15.31
2016-12-01T02:08:02.270Z,15.3
2016-12-01T02:08:30.296Z,15.22
2016-12-01T02:08:58.339Z,15.22
2016-12-01T02:09:26.574Z,15.18
2016-12-01T02:09:54.803Z,15.2
2016-12-01T02:10:22.857Z,15.15
2016-12-01T02:10:51.019Z,15.19
2016-12-01T02:11:50.788Z,15.23
2016-12-01T02:12:18.933Z,15.23
2016-12-01T02:12:46.954Z,15.22
2016-12-01T02:13:15.216Z,15.27
2016-12-01T02:13:43.438Z,15.31
2016-12-01T02:14:11.499Z,15.33
2016-12-01T02:14:39.684Z,15.34
2016-12-01T02:15:07.780Z,15.35
2016-12-01T02:15:35.716Z,15.35
2016-12-01T02:16:03.973Z,15.38
2016-12-01T02:16:31.993Z,15.4
2016-12-01T02:17:00.302Z,15.4
2016-12-01T02:17:28.469Z,15.4
2016-12-01T02:17:56.757Z,15.47
2016-12-01T02:18:24.964Z,15.45
2016-12-01T02:18:53.022Z,15.51
2016-12-01T02:19:21.070Z,15.52
2016-12-01T02:19:49.225Z,15.41
2016-12-01T02:20:17.349Z,15.44
2016-12-01T02:20:45.520Z,15.49
2016-12-01T02:21:13.706Z,15.51
2016-12-01T02:21:41.718Z,15.55
2016-12-01T02:22:09.768Z,15.59
2016-12-01T02:22:37.819Z,15.51
2016-12-01T02:23:05.944Z,15.58
2016-12-01T02:23:33.937Z,15.53
2016-12-01T02:24:02.122Z,15.55
2016-12-01T02:24:30.194Z,15.59
2016-12-01T02:24:58.472Z,15.65
2016-12-01T02:25:26.653Z,15.62
2016-12-01T02:25:54.860Z,15.59
2016-12-01T02:26:23.105Z,15.58
2016-12-01T02:26:51.293Z,15.58
2016-12-01T02:27:19.573Z,15.58
2016-12-01T02:27:47.610Z,15.68
2016-12-01T02:28:15.665Z,15.62
2016-12-01T02:29:15.440Z,15.58
2016-12-01T02:29:43.704Z,15.65
2016-12-01T02:30:11.623Z,15.67
2016-12-01T02:30:39.685Z,15.67
2016-12-01T02:31:07.813Z,15.7
2016-12-01T02:31:35.967Z,15.67
2016-12-01T02:32:04.177Z,15.6
2016-12-01T02:32:32.179Z,15.67
2016-12-01T02:33:00.251Z,15.68
2016-12-01T02:33:28.430Z,15.7
2016-12-01T02:33:56.454Z,15.7
2016-12-01T02:34:24.537Z,15.68
2016-12-01T02:34:52.659Z,15.73
2016-12-01T02:35:20.737Z,15.71
2016-12-01T02:35:48.909Z,15.65
2016-12-01T02:36:17.031Z,15.74
2016-12-01T02:36:45.270Z,15.63
2016-12-01T02:37:13.614Z,15.68
2016-12-01T02:37:41.747Z,15.73
2016-12-01T02:38:10.010Z,15.62
2016-12-01T02:38:38.215Z,15.63
2016-12-01T02:39:06.394Z,15.63
2016-12-01T02:39:34.474Z,15.65
2016-12-01T02:40:02.464Z,15.65
2016-12-01T02:40:30.719Z,15.63
2016-12-01T02:40:58.898Z,15.71
2016-12-01T02:41:27.054Z,15.67
2016-12-01T02:41:55.212Z,15.71
2016-12-01T02:42:23.181Z,15.63
2016-12-01T02:42:50.990Z,15.67
2016-12-01T02:43:19.176Z,15.7
2016-12-01T02:43:47.253Z,15.62
2016-12-01T02:44:15.357Z,15.7
2016-12-01T02:44:43.391Z,15.62
2016-12-01T02:45:11.389Z,15.65
2016-12-01T02:45:39.647Z,15.68
2016-12-01T02:46:07.818Z,15.68
2016-12-01T02:46:36.059Z,15.63
2016-12-01T02:47:04.231Z,15.73
2016-12-01T02:47:32.455Z,15.68
2016-12-01T02:48:00.551Z,15.65
2016-12-01T02:48:28.550Z,15.65
2016-12-01T02:48:56.615Z,15.68
2016-12-01T02:49:24.669Z,15.77
2016-12-01T02:49:52.831Z,15.65
2016-12-01T02:50:21.131Z,15.7
2016-12-01T02:50:49.172Z,15.68
2016-12-01T02:51:17.139Z,15.73
2016-12-01T02:51:45.194Z,15.65
2016-12-01T02:52:13.443Z,15.68
2016-12-01T02:52:41.494Z,15.67
2016-12-01T02:53:09.510Z,15.71
2016-12-01T02:53:37.740Z,15.71
2016-12-01T02:54:05.929Z,15.73
2016-12-01T02:54:34.079Z,15.68
2016-12-01T02:55:02.127Z,15.68
2016-12-01T02:55:30.341Z,15.71
2016-12-01T02:55:58.509Z,15.65
2016-12-01T02:56:26.885Z,15.67
2016-12-01T02:57:07.839Z,15.68
2016-12-01T02:57:36.013Z,15.65
2016-12-01T02:58:04.055Z,15.74
2016-12-01T02:58:32.188Z,15.75
2016-12-01T02:59:00.309Z,15.75
2016-12-01T02:59:28.468Z,15.75
2016-12-01T02:59:56.403Z,15.78
2016-12-01T03:00:24.638Z,15.77
2016-12-01T03:00:52.819Z,15.7
2016-12-01T03:01:21.010Z,15.73
2016-12-01T03:01:49.202Z,15.75
2016-12-01T03:02:17.462Z,15.77
2016-12-01T03:02:45.587Z,15.73
2016-12-01T03:03:39.821Z,15.77
2016-12-01T03:04:07.834Z,15.74
2016-12-01T03:04:35.932Z,15.74
2016-12-01T03:05:04.027Z,15.78
2016-12-01T03:05:32.150Z,15.71
2016-12-01T03:06:37.597Z,15.73
2016-12-01T03:07:05.447Z,15.68
2016-12-01T03:07:33.515Z,15.81
2016-12-01T03:08:01.650Z,15.81
2016-12-01T03:08:29.757Z,15.7
2016-12-01T03:08:57.806Z,15.63
2016-12-01T03:09:25.994Z,15.65
2016-12-01T03:09:54.027Z,15.65
2016-12-01T03:10:22.217Z,15.68
2016-12-01T03:10:50.253Z,15.68
2016-12-01T03:11:18.373Z,15.7
2016-12-01T03:11:46.495Z,15.63
2016-12-01T03:12:14.542Z,15.7
2016-12-01T03:12:42.679Z,15.6
2016-12-01T03:13:10.656Z,15.67
2016-12-01T03:13:38.732Z,15.7
2016-12-01T03:14:06.576Z,15.67
2016-12-01T03:14:34.646Z,15.74
2016-12-01T03:15:02.747Z,15.68
2016-12-01T03:15:30.824Z,15.71
2016-12-01T03:15:58.926Z,15.65
2016-12-01T03:16:26.979Z,15.73
2016-12-01T03:16:55.045Z,15.7
2016-12-01T03:17:23.250Z,15.68
2016-12-01T03:17:51.185Z,15.68
2016-12-01T03:18:19.395Z,15.68
2016-12-01T03:18:47.688Z,15.68
2016-12-01T03:19:15.746Z,15.73
2016-12-01T03:19:43.674Z,15.65
2016-12-01T03:20:11.819Z,15.68
2016-12-01T03:20:39.895Z,15.67
2016-12-01T03:21:08.021Z,15.68
2016-12-01T03:21:36.212Z,15.71
2016-12-01T03:22:04.457Z,15.65
2016-12-01T03:22:32.644Z,15.65
2016-12-01T03:23:00.853Z,15.68
2016-12-01T03:23:28.924Z,15.63
2016-12-01T03:23:57.035Z,15.71
2016-12-01T03:24:25.171Z,15.68
2016-12-01T03:24:53.316Z,15.63
2016-12-01T03:25:21.565Z,15.7
2016-12-01T03:25:49.678Z,15.67
2016-12-01T03:26:17.772Z,15.65
2016-12-01T03:26:45.797Z,15.68
2016-12-01T03:27:13.952Z,15.63
2016-12-01T03:27:42.107Z,15.65
2016-12-01T03:28:10.256Z,15.65
2016-12-01T03:28:38.339Z,15.58
2016-12-01T03:29:06.443Z,15.65
2016-12-01T03:30:06.252Z,15.7
2016-12-01T03:30:34.334Z,15.63
2016-12-01T03:31:02.153Z,15.67
2016-12-01T03:31:30.319Z,15.62
2016-12-01T03:31:58.465Z,15.65
2016-12-01T03:32:26.713Z,15.65
2016-12-01T03:32:54.843Z,15.59
2016-12-01T03:33:22.958Z,15.67
2016-12-01T03:33:51.160Z,15.73
2016-12-01T03:34:56.557Z,15.67
2016-12-01T03:35:24.570Z,15.73
2016-12-01T03:35:52.773Z,15.68
2016-12-01T03:36:20.808Z,15.7
2016-12-01T03:36:48.840Z,15.74
2016-12-01T03:37:16.974Z,15.71
2016-12-01T03:37:45.253Z,15.63
2016-12-01T03:38:13.536Z,15.71
2016-12-01T03:38:41.755Z,15.73
2016-12-01T03:39:10.028Z,15.62
2016-12-01T03:39:38.081Z,15.7
2016-12-01T03:40:06.263Z,15.68
2016-12-01T03:40:34.277Z,15.67
2016-12-01T03:41:02.371Z,15.67
2016-12-01T03:41:30.403Z,15.67
2016-12-01T03:41:58.463Z,15.7
2016-12-01T03:42:26.698Z,15.7
2016-12-01T03:42:54.697Z,15.67
2016-12-01T03:43:22.753Z,15.7
2016-12-01T03:43:50.912Z,15.62
2016-12-01T03:44:18.844Z,15.63
2016-12-01T03:44:47.026Z,15.58
2016-12-01T03:45:15.115Z,15.55
2016-12-01T03:45:43.311Z,15.62
2016-12-01T03:46:11.241Z,15.56
2016-12-01T03:46:39.376Z,15.52
2016-12-01T03:47:07.513Z,15.52
2016-12-01T03:47:35.776Z,15.56
2016-12-01T03:48:03.975Z,15.56
2016-12-01T03:48:32.019Z,15.53
2016-12-01T03:49:00.163Z,15.55
2016-12-01T03:49:28.184Z,15.52
2016-12-01T03:49:56.303Z,15.56
2016-12-01T03:50:50.442Z,15.55
2016-12-01T03:51:18.645Z,15.59
2016-12-01T03:51:46.864Z,15.47
2016-12-01T03:52:15.071Z,15.52
2016-12-01T03:52:43.356Z,15.49
2016-12-01T03:53:11.512Z,15.52
2016-12-01T03:53:39.725Z,15.51
2016-12-01T03:54:07.790Z,15.52
2016-12-01T03:54:35.947Z,15.53
2016-12-01T03:55:04.008Z,15.47
2016-12-01T03:55:58.151Z,15.38
2016-12-01T03:56:26.169Z,15.34
2016-12-01T03:56:54.215Z,15.4
2016-12-01T03:57:22.378Z,15.4
2016-12-01T03:57:50.473Z,15.51
2016-12-01T03:58:18.475Z,15.51
2016-12-01T03:58:46.584Z,15.49
2016-12-01T03:59:14.720Z,15.49
2016-12-01T03:59:42.793Z,15.55
2016-12-01T04:00:10.831Z,15.47
2016-12-01T04:00:38.671Z,15.49
2016-12-01T04:01:06.842Z,15.49
2016-12-01T04:01:34.858Z,15.44
2016-12-01T04:02:03.176Z,15.45
2016-12-01T04:02:31.125Z,15.47
2016-12-01T04:02:59.337Z,15.49
2016-12-01T04:03:27.456Z,15.53
2016-12-01T04:03:55.474Z,15.45
2016-12-01T04:04:23.610Z,15.51
2016-12-01T04:04:51.580Z,15.6
2016-12-01T04:05:19.686Z,15.49
2016-12-01T04:05:47.623Z,15.56
2016-12-01T04:06:15.687Z,15.51
2016-12-01T04:06:43.887Z,15.55
2016-12-01T04:07:11.848Z,15.6
2016-12-01T04:07:39.849Z,15.56
2016-12-01T04:08:08.073Z,15.53
2016-12-01T04:08:36.137Z,15.56
2016-12-01T04:09:04.138Z,15.55
2016-12-01T04:09:32.240Z,15.59
2016-12-01T04:10:00.299Z,15.49
2016-12-01T04:10:28.211Z,15.55
2016-12-01T04:10:56.180Z,15.56
2016-12-01T04:11:24.281Z,15.49
2016-12-01T04:11:52.416Z,15.58
2016-12-01T04:12:20.574Z,15.53
2016-12-01T04:12:48.581Z,15.53
2016-12-01T04:13:16.877Z,15.55
2016-12-01T04:13:45.054Z,15.52
2016-12-01T04:14:13.159Z,15.52
2016-12-01T04:14:41.218Z,15.59
2016-12-01T04:15:09.331Z,15.58
2016-12-01T04:15:37.318Z,15.47
2016-12-01T04:16:05.307Z,15.52
2016-12-01T04:16:33.408Z,15.47
2016-12-01T04:17:01.505Z,15.47
2016-12-01T04:17:29.602Z,15.41
2016-12-01T04:17:57.853Z,15.49
2016-12-01T04:18:25.964Z,15.45
2016-12-01T04:18:54.141Z,15.43
2016-12-01T04:19:22.134Z,15.49
2016-12-01T04:19:50.109Z,15.51
2016-12-01T04:20:18.283Z,15.47
2016-12-01T04:20:46.394Z,15.38
2016-12-01T04:21:14.532Z,15.47
2016-12-01T04:21:42.726Z,15.47
2016-12-01T04:22:10.625Z,15.51
2016-12-01T04:22:38.788Z,15.49
2016-12-01T04:23:07.008Z,15.49
2016-12-01T04:23:35.021Z,15.47
2016-12-01T04:24:03.136Z,15.52
2016-12-01T04:24:31.192Z,15.49
2016-12-01T04:24:59.327Z,15.51
2016-12-01T04:25:27.556Z,15.53
2016-12-01T04:25:55.627Z,15.53
2016-12-01T04:26:23.772Z,15.6
2016-12-01T04:26:52.059Z,15.62
2016-12-01T04:27:20.287Z,15.63
2016-12-01T04:27:48.512Z,15.67
2016-12-01T04:28:16.621Z,15.67
2016-12-01T04:28:44.753Z,15.67
2016-12-01T04:29:12.938Z,15.71
2016-12-01T04:29:41.121Z,15.68
2016-12-01T04:30:09.337Z,15.7
2016-12-01T04:30:37.474Z,15.67
2016-12-01T04:31:05.693Z,15.68
2016-12-01T04:31:33.931Z,15.63
2016-12-01T04:32:02.167Z,15.7
2016-12-01T04:32:30.204Z,15.68
2016-12-01T04:32:58.249Z,15.56
2016-12-01T04:33:26.189Z,15.7
2016-12-01T04:33:54.398Z,15.73
2016-12-01T04:34:22.589Z,15.52
2016-12-01T04:34:50.623Z,15.7
2016-12-01T04:35:18.852Z,15.62
2016-12-01T04:35:47.093Z,15.65
2016-12-01T04:36:15.195Z,15.63
2016-12-01T04:36:43.299Z,15.68
2016-12-01T04:37:11.571Z,15.63
2016-12-01T04:37:39.771Z,15.62
2016-12-01T04:38:07.983Z,15.65
2016-12-01T04:38:36.177Z,15.7
2016-12-01T04:39:04.450Z,15.65
2016-12-01T04:39:32.571Z,15.7
2016-12-01T04:40:00.690Z,15.65
2016-12-01T04:40:28.815Z,15.6
2016-12-01T04:40:56.943Z,15.65
2016-12-01T04:41:24.769Z,15.65
2016-12-01T04:41:52.971Z,15.7
2016-12-01T04:42:21.223Z,15.67
2016-12-01T04:42:49.237Z,15.7
2016-12-01T04:43:17.379Z,15.63
2016-12-01T04:43:45.332Z,15.67
2016-12-01T04:44:13.580Z,15.67
2016-12-01T04:44:41.800Z,15.67
2016-12-01T04:45:41.561Z,15.68
2016-12-01T04:46:09.655Z,15.7
2016-12-01T04:46:37.829Z,15.71
2016-12-01T04:47:06.694Z,15.65
2016-12-01T04:48:06.376Z,15.73
2016-12-01T04:48:34.447Z,15.75
2016-12-01T04:49:02.622Z,15.71
2016-12-01T04:49:30.716Z,15.7
2016-12-01T04:49:58.871Z,15.75
2016-12-01T04:50:26.941Z,15.7
2016-12-01T04:50:55.074Z,15.78
2016-12-01T04:51:23.276Z,15.73
2016-12-01T04:51:51.325Z,15.8
2016-12-01T04:52:19.252Z,15.73
2016-12-01T04:52:47.373Z,15.78
2016-12-01T04:53:15.612Z,15.78
2016-12-01T04:53:43.671Z,15.8
2016-12-01T04:54:11.731Z,15.86
2016-12-01T04:54:39.808Z,15.81
2016-12-01T04:55:07.868Z,15.78
2016-12-01T04:55:35.890Z,15.8
2016-12-01T04:56:03.929Z,15.84
2016-12-01T04:56:32.046Z,15.78
2016-12-01T04:57:00.053Z,15.78
2016-12-01T04:57:28.279Z,15.83
2016-12-01T04:57:56.372Z,15.84
2016-12-01T04:58:24.608Z,15.83
2016-12-01T04:58:52.789Z,15.86
2016-12-01T04:59:20.737Z,15.77
2016-12-01T04:59:49.009Z,15.84
2016-12-01T05:00:43.233Z,15.8
2016-12-01T05:01:11.330Z,15.78
2016-12-01T05:01:39.470Z,15.78
2016-12-01T05:02:07.571Z,15.86
2016-12-01T05:02:35.770Z,15.88
2016-12-01T05:03:03.623Z,15.81
2016-12-01T05:03:31.656Z,15.83
2016-12-01T05:03:59.650Z,15.89
2016-12-01T05:04:27.723Z,15.89
2016-12-01T05:04:55.976Z,15.86
2016-12-01T05:05:24.026Z,15.83
2016-12-01T05:05:52.143Z,15.74
2016-12-01T05:06:20.211Z,15.78
2016-12-01T05:06:48.375Z,15.78
2016-12-01T05:07:16.565Z,15.83
2016-12-01T05:07:44.650Z,15.81
2016-12-01T05:08:12.721Z,15.77
2016-12-01T05:08:41.001Z,15.75
2016-12-01T05:09:09.023Z,15.78
2016-12-01T05:09:37.017Z,15.92
2016-12-01T05:10:05.221Z,15.78
2016-12-01T05:10:33.289Z,15.84
2016-12-01T05:11:01.541Z,15.81
2016-12-01T05:11:29.775Z,15.86
2016-12-01T05:11:57.788Z,15.84
2016-12-01T05:12:25.704Z,15.75
2016-12-01T05:12:53.810Z,15.86
2016-12-01T05:13:22.034Z,15.8
2016-12-01T05:13:50.176Z,15.83
2016-12-01T05:14:18.183Z,15.8
2016-12-01T05:14:46.442Z,15.89
2016-12-01T05:15:14.458Z,15.89
2016-12-01T05:15:42.558Z,15.83
2016-12-01T05:16:10.456Z,15.86
2016-12-01T05:16:38.585Z,15.86
2016-12-01T05:17:06.546Z,15.86
2016-12-01T05:17:34.595Z,15.86
2016-12-01T05:18:02.720Z,15.77
2016-12-01T05:18:30.938Z,15.78
2016-12-01T05:18:58.953Z,15.83
2016-12-01T05:19:27.163Z,15.81
2016-12-01T05:19:55.264Z,15.78
2016-12-01T05:20:23.519Z,15.81
2016-12-01T05:20:51.764Z,15.88
2016-12-01T05:21:19.969Z,15.84
2016-12-01T05:21:48.069Z,15.83
2016-12-01T05:22:16.281Z,15.75
2016-12-01T05:22:44.495Z,15.81
2016-12-01T05:23:12.503Z,15.83
2016-12-01T05:23:43.589Z,15.78
2016-12-01T05:24:49.056Z,15.78
2016-12-01T05:25:17.108Z,15.73
2016-12-01T05:25:45.207Z,15.74
2016-12-01T05:26:13.239Z,15.84
2016-12-01T05:26:41.420Z,15.81
2016-12-01T05:27:09.577Z,15.86
2016-12-01T05:27:37.763Z,15.81
2016-12-01T05:28:06.030Z,15.81
2016-12-01T05:28:34.265Z,15.78
2016-12-01T05:29:02.431Z,15.77
2016-12-01T05:29:30.586Z,15.77
2016-12-01T05:29:58.576Z,15.81
2016-12-01T05:30:26.888Z,15.83
2016-12-01T05:30:54.960Z,15.75
2016-12-01T05:31:22.997Z,15.84
2016-12-01T05:31:51.194Z,15.8
2016-12-01T05:32:19.466Z,15.73
2016-12-01T05:32:47.718Z,15.73
2016-12-01T05:33:15.987Z,15.78
2016-12-01T05:33:44.200Z,15.77
2016-12-01T05:34:12.477Z,15.75
2016-12-01T05:34:40.557Z,15.75
2016-12-01T05:35:08.723Z,15.67
2016-12-01T05:35:36.808Z,15.7
2016-12-01T05:36:04.710Z,15.65
2016-12-01T05:36:32.768Z,15.65
2016-12-01T05:37:00.701Z,15.71
2016-12-01T05:37:29.001Z,15.68
2016-12-01T05:37:57.065Z,15.68
2016-12-01T05:38:25.059Z,15.68
2016-12-01T05:38:53.361Z,15.68
2016-12-01T05:39:21.495Z,15.71
2016-12-01T05:39:49.467Z,15.71
2016-12-01T05:40:17.671Z,15.71
2016-12-01T05:40:45.729Z,15.68
2016-12-01T05:41:14.039Z,15.68
2016-12-01T05:41:42.158Z,15.71
2016-12-01T05:42:10.365Z,15.63
2016-12-01T05:42:38.431Z,15.71
2016-12-01T05:43:06.602Z,15.71
2016-12-01T05:43:34.656Z,15.68
2016-12-01T05:44:02.949Z,15.67
2016-12-01T05:44:31.137Z,15.68
2016-12-01T05:44:59.377Z,15.65
2016-12-01T05:45:27.503Z,15.71
2016-12-01T05:45:55.695Z,15.71
2016-12-01T05:46:23.933Z,15.63
2016-12-01T05:46:52.144Z,15.68
2016-12-01T05:47:20.241Z,15.67
2016-12-01T05:47:48.093Z,15.62
2016-12-01T05:48:16.289Z,15.65
2016-12-01T05:48:44.395Z,15.68
2016-12-01T05:49:12.479Z,15.73
2016-12-01T05:49:40.680Z,15.59
2016-12-01T05:50:08.794Z,15.73
2016-12-01T05:50:36.943Z,15.73
2016-12-01T05:51:04.959Z,15.68
2016-12-01T05:51:33.099Z,15.74
2016-12-01T05:52:01.313Z,15.65
2016-12-01T05:52:29.371Z,15.73
2016-12-01T05:52:57.573Z,15.74
2016-12-01T05:53:25.755Z,15.67
2016-12-01T05:53:53.979Z,15.65
2016-12-01T05:54:22.202Z,15.74
2016-12-01T05:54:50.346Z,15.67
2016-12-01T05:55:18.637Z,15.73
2016-12-01T05:55:46.915Z,15.68
2016-12-01T05:56:52.331Z,15.56
2016-12-01T05:57:20.343Z,15.59
2016-12-01T05:57:48.500Z,15.73
2016-12-01T05:58:16.607Z,15.65
2016-12-01T05:58:44.997Z,15.63
2016-12-01T05:59:13.199Z,15.62
2016-12-01T05:59:41.436Z,15.55
2016-12-01T06:00:09.604Z,15.56
2016-12-01T06:00:37.764Z,15.58
2016-12-01T06:01:06.069Z,15.47
2016-12-01T06:01:34.328Z,15.53
2016-12-01T06:02:02.566Z,15.51
2016-12-01T06:02:30.726Z,15.45
2016-12-01T06:02:58.869Z,15.44
2016-12-01T06:03:27.064Z,15.47
2016-12-01T06:03:55.102Z,15.51
2016-12-01T06:04:23.153Z,15.49
2016-12-01T06:04:51.291Z,15.37
2016-12-01T06:05:19.394Z,15.35
2016-12-01T06:05:47.551Z,15.34
2016-12-01T06:06:15.767Z,15.4
2016-12-01T06:06:43.954Z,15.38
2016-12-01T06:07:12.223Z,15.43
2016-12-01T06:07:40.450Z,15.41
2016-12-01T06:08:08.339Z,15.35
2016-12-01T06:08:36.480Z,15.4
2016-12-01T06:09:04.852Z,15.35
2016-12-01T06:09:33.162Z,15.37
2016-12-01T06:10:01.334Z,15.26
2016-12-01T06:10:29.435Z,15.41
2016-12-01T06:10:57.705Z,15.38
2016-12-01T06:11:25.958Z,15.4
2016-12-01T06:11:54.057Z,15.37
2016-12-01T06:12:22.374Z,15.43